EHWO/WOE METAR and TAF weather

Enter ICAO airport designator
Station Type Date Time Source
EHWO METAR 2020/03/31 22:55 UTC NOAA

EHWO 312255Z AUTO 04004KT 9999 NCD 00/M04 Q1027 BLU


Station Type Date Time Source
EHWO Decoded METAR 2020/03/31 22:55 UTC NOAA

Woensdrecht, Netherlands (EHWO) 51-27N 004-20E 17M
Mar 31, 2020 - 06:55 PM EDT / 2020.03.31 2255 UTC
Wind: from the NE (040 degrees) at 5 MPH (4 KT):0
Visibility: greater than 7 mile(s):0
Temperature: 32 F (0 C)
Windchill: 26 F (-3 C):1
Dew Point: 24 F (-4 C)
Relative Humidity: 74%
Pressure (altimeter): 30.33 in. Hg (1027 hPa)
ob: EHWO 312255Z AUTO 04004KT 9999 NCD 00/M04 Q1027 BLU
cycle: 23

Station Type Date Time Source
EHWO TAF 2020/03/31 09:06 UTC NOAA

TAF EHWO 310804Z 3109/3121 06011KT CAVOK

Example: see airport list